Time;durP1;ratioP1;P1;durP2;ratioP2;P2;SDS_P1;SDS_P2;PMS_P1;PMS_P2;Temp;Humidity;BMP_temperature;BMP_pressure;BME280_temperature;BME280_humidity;BME280_pressure;Samples;Min_cycle;Max_cycle;Signal;HPM_P1;HPM_P2
2022/01/24 00:00:59;;;;;;;9.57;8.67;;;;;;;;;;5056139;28;20868;-81
2022/01/24 00:03:26;;;;;;;11.23;10.13;;;;;;;;;;5065497;28;21018;-80
2022/01/24 00:05:54;;;;;;;11.07;9.90;;;;;;;;;;5052006;28;20458;-79
2022/01/24 00:08:21;;;;;;;11.60;10.40;;;;;;;;;;5051812;28;20493;-79
2022/01/24 00:10:50;;;;;;;10.83;9.70;;;;;;;;;;5052195;28;20450;-79
2022/01/24 00:14:08;;;;;;;10.37;9.37;;;;;;;;;;5051422;28;20528;-80
2022/01/24 00:16:28;;;;;;;11.10;9.87;;;;;;;;;;5055571;28;20443;-80
2022/01/24 00:27:10;;;;;;;10.87;9.67;;;;;;;;;;5075054;28;20413;-80
2022/01/24 00:29:37;;;;;;;10.40;9.30;;;;;;;;;;5074939;28;20481;-80
2022/01/24 00:32:04;;;;;;;10.77;9.63;;;;;;;;;;5074188;28;20449;-79
2022/01/24 00:34:32;;;;;;;10.17;9.20;;;;;;;;;;5073410;28;20448;-80
2022/01/24 00:37:01;;;;;;;10.27;9.27;;;;;;;;;;5073876;28;20441;-79
2022/01/24 00:39:28;;;;;;;11.17;10.17;;;;;;;;;;5073633;28;20918;-79
2022/01/24 00:42:07;;;;;;;11.47;9.87;;;;;;;;;;5072834;28;20469;-80
2022/01/24 00:44:46;;;;;;;11.80;10.60;;;;;;;;;;5072895;28;20458;-81
2022/01/24 00:47:20;;;;;;;11.93;10.73;;;;;;;;;;5073656;28;20453;-79
2022/01/24 00:52:59;;;;;;;11.97;10.77;;;;;;;;;;5073897;28;20465;-79
2022/01/24 00:55:26;;;;;;;11.47;10.27;;;;;;;;;;5058695;28;20432;-80
2022/01/24 00:57:54;;;;;;;12.17;11.07;;;;;;;;;;5061942;28;20469;-79
2022/01/24 01:00:21;;;;;;;13.83;11.60;;;;;;;;;;5054807;28;20992;-78
2022/01/24 01:02:48;;;;;;;12.53;11.13;;;;;;;;;;5054530;28;20489;-79
2022/01/24 01:05:31;;;;;;;11.80;10.60;;;;;;;;;;5055011;28;20449;-79
2022/01/24 01:18:04;;;;;;;13.37;12.07;;;;;;;;;;5055579;28;21165;-81
2022/01/24 01:19:04;;;;;;;12.03;10.83;;;;;;;;;;5057404;28;20443;-80
2022/01/24 01:21:31;;;;;;;11.77;10.57;;;;;;;;;;5066493;28;20457;-80
2022/01/24 01:24:00;;;;;;;12.87;11.47;;;;;;;;;;5060491;28;20809;-80
2022/01/24 01:26:32;;;;;;;14.30;12.40;;;;;;;;;;5074669;28;20971;-80
2022/01/24 01:29:03;;;;;;;12.40;11.17;;;;;;;;;;5035577;28;20542;-80
2022/01/24 01:31:40;;;;;;;13.47;12.17;;;;;;;;;;5035601;28;20450;-82
2022/01/24 01:34:19;;;;;;;13.10;11.73;;;;;;;;;;5036805;28;20744;-81
2022/01/24 01:37:20;;;;;;;13.70;12.30;;;;;;;;;;5038584;28;20485;-81
2022/01/24 01:40:12;;;;;;;12.80;11.53;;;;;;;;;;5039123;28;20494;-81
2022/01/24 01:54:08;;;;;;;13.20;11.90;;;;;;;;;;5053605;28;20484;-80
2022/01/24 01:56:36;;;;;;;12.83;11.03;;;;;;;;;;5078795;28;20510;-78
2022/01/24 01:59:03;;;;;;;13.30;12.10;;;;;;;;;;5081611;28;20507;-80
2022/01/24 02:01:30;;;;;;;12.87;11.57;;;;;;;;;;5081920;28;20430;-81
2022/01/24 02:03:57;;;;;;;13.70;10.90;;;;;;;;;;5068200;28;20438;-79
2022/01/24 02:06:24;;;;;;;12.37;10.67;;;;;;;;;;5059078;28;20446;-80
2022/01/24 02:08:58;;;;;;;15.10;13.00;;;;;;;;;;5058740;28;20462;-79
2022/01/24 02:11:25;;;;;;;13.40;11.97;;;;;;;;;;5057760;28;20492;-80
2022/01/24 02:13:54;;;;;;;13.37;12.07;;;;;;;;;;5053030;28;20476;-79
2022/01/24 02:16:31;;;;;;;15.47;12.60;;;;;;;;;;5052392;28;20450;-78
2022/01/24 02:19:11;;;;;;;14.47;12.97;;;;;;;;;;5053137;28;20489;-78
2022/01/24 02:21:47;;;;;;;13.03;11.73;;;;;;;;;;5052420;28;20453;-79
2022/01/24 02:24:17;;;;;;;14.73;12.40;;;;;;;;;;5052611;28;20953;-78
2022/01/24 02:26:48;;;;;;;15.30;11.90;;;;;;;;;;5057760;28;20688;-79
2022/01/24 02:29:24;;;;;;;14.67;13.17;;;;;;;;;;5058005;28;20817;-79
2022/01/24 02:31:52;;;;;;;13.03;11.47;;;;;;;;;;5072385;28;20441;-79
2022/01/24 02:34:24;;;;;;;12.80;11.50;;;;;;;;;;5071935;28;20469;-80
2022/01/24 02:36:53;;;;;;;14.80;11.97;;;;;;;;;;5079165;28;20441;-80
2022/01/24 02:50:17;;;;;;;13.30;12.00;;;;;;;;;;5076643;28;20421;-80
2022/01/24 02:52:46;;;;;;;13.07;11.77;;;;;;;;;;5075709;28;20572;-81
2022/01/24 02:55:13;;;;;;;13.77;12.30;;;;;;;;;;5076633;28;20445;-78
2022/01/24 02:57:40;;;;;;;14.03;12.10;;;;;;;;;;5077356;28;20461;-79
2022/01/24 03:00:08;;;;;;;13.63;12.07;;;;;;;;;;5076461;28;20480;-79
2022/01/24 03:02:35;;;;;;;14.07;12.57;;;;;;;;;;5076147;28;20486;-79
2022/01/24 03:05:02;;;;;;;12.20;10.90;;;;;;;;;;5036090;28;20505;-79
2022/01/24 03:07:30;;;;;;;13.87;12.17;;;;;;;;;;5035568;28;20447;-79
2022/01/24 03:10:01;;;;;;;12.90;11.57;;;;;;;;;;5031935;28;20553;-80
2022/01/24 03:12:40;;;;;;;13.97;12.33;;;;;;;;;;5031940;28;20479;-76
2022/01/24 03:15:08;;;;;;;13.23;11.80;;;;;;;;;;5035783;28;20589;-79
2022/01/24 03:17:35;;;;;;;12.70;11.33;;;;;;;;;;5036598;28;20463;-79
2022/01/24 03:20:02;;;;;;;13.13;11.80;;;;;;;;;;5036953;28;20483;-79
2022/01/24 03:22:29;;;;;;;13.10;11.53;;;;;;;;;;5033103;28;20455;-77
2022/01/24 03:24:56;;;;;;;13.33;11.93;;;;;;;;;;5035242;28;20462;-78
2022/01/24 03:27:24;;;;;;;17.10;11.27;;;;;;;;;;5031873;28;20439;-78
2022/01/24 03:29:51;;;;;;;12.23;10.93;;;;;;;;;;5031053;28;20443;-79
2022/01/24 03:32:18;;;;;;;13.10;11.13;;;;;;;;;;5030593;28;20504;-81
2022/01/24 03:34:46;;;;;;;34.77;26.73;;;;;;;;;;5034730;28;20866;-80
2022/01/24 03:37:13;;;;;;;71.23;48.17;;;;;;;;;;5032580;28;20957;-79
2022/01/24 03:39:40;;;;;;;83.33;53.33;;;;;;;;;;5035842;28;20486;-80
2022/01/24 03:42:07;;;;;;;27.53;21.23;;;;;;;;;;5032794;28;20497;-81
2022/01/24 03:44:35;;;;;;;14.63;12.17;;;;;;;;;;5032355;28;20439;-79
2022/01/24 03:47:19;;;;;;;13.50;12.10;;;;;;;;;;5035335;28;20465;-79
2022/01/24 03:49:46;;;;;;;13.40;11.50;;;;;;;;;;5032796;28;20435;-79
2022/01/24 03:52:14;;;;;;;13.53;11.97;;;;;;;;;;5032410;28;20447;-78
2022/01/24 03:54:43;;;;;;;13.53;12.13;;;;;;;;;;5035256;28;20501;-79
2022/01/24 03:57:10;;;;;;;14.37;10.93;;;;;;;;;;5035240;28;20541;-79
2022/01/24 03:59:39;;;;;;;13.60;12.20;;;;;;;;;;5035374;28;20871;-79
2022/01/24 04:02:06;;;;;;;12.53;11.20;;;;;;;;;;5036158;28;20443;-81
2022/01/24 04:04:33;;;;;;;11.50;10.40;;;;;;;;;;5051883;28;20844;-79
2022/01/24 04:07:00;;;;;;;13.13;11.70;;;;;;;;;;5055466;28;20545;-79
2022/01/24 04:09:27;;;;;;;13.80;12.20;;;;;;;;;;5054903;28;20458;-78
2022/01/24 04:11:57;;;;;;;12.50;11.20;;;;;;;;;;5055577;28;20496;-79
2022/01/24 04:14:35;;;;;;;13.17;11.20;;;;;;;;;;5055626;28;20503;-79
2022/01/24 04:17:20;;;;;;;12.40;10.90;;;;;;;;;;5056417;28;20448;-79
2022/01/24 04:22:33;;;;;;;11.47;10.27;;;;;;;;;;5054984;28;20464;-79
2022/01/24 04:25:03;;;;;;;12.70;11.17;;;;;;;;;;5053307;28;20546;-79
2022/01/24 04:27:31;;;;;;;15.00;11.90;;;;;;;;;;5068818;28;20521;-81
2022/01/24 04:29:58;;;;;;;13.40;12.00;;;;;;;;;;5067091;28;20444;-79
2022/01/24 04:32:26;;;;;;;13.80;12.37;;;;;;;;;;5081427;28;20489;-79
2022/01/24 04:34:53;;;;;;;12.53;11.10;;;;;;;;;;5078324;28;20465;-80
2022/01/24 04:37:21;;;;;;;15.70;12.60;;;;;;;;;;5078680;28;20488;-80
2022/01/24 04:39:48;;;;;;;14.60;13.03;;;;;;;;;;5077416;28;20481;-80
2022/01/24 04:42:24;;;;;;;13.13;11.73;;;;;;;;;;5078667;28;20646;-80
2022/01/24 04:45:08;;;;;;;13.13;11.50;;;;;;;;;;5077449;28;20444;-80
2022/01/24 04:50:19;;;;;;;15.07;12.83;;;;;;;;;;5075622;28;20479;-82
2022/01/24 04:50:42;;;;;;;16.37;13.23;;;;;;;;;;5077322;28;20550;-81
2022/01/24 04:53:15;;;;;;;17.90;12.33;;;;;;;;;;5075300;28;20444;-78
2022/01/24 04:55:42;;;;;;;13.60;12.20;;;;;;;;;;5076266;28;20453;-79
2022/01/24 04:58:09;;;;;;;12.50;11.27;;;;;;;;;;5075503;28;20469;-79
2022/01/24 05:00:37;;;;;;;13.13;11.53;;;;;;;;;;5075039;28;20485;-79
2022/01/24 05:03:05;;;;;;;13.63;11.70;;;;;;;;;;5070547;28;20442;-79
2022/01/24 05:05:32;;;;;;;15.60;13.30;;;;;;;;;;5055020;28;20454;-81
2022/01/24 05:08:04;;;;;;;12.80;11.47;;;;;;;;;;5055841;28;20474;-79
2022/01/24 05:10:37;;;;;;;12.50;11.10;;;;;;;;;;5058727;28;20453;-80
2022/01/24 05:21:34;;;;;;;14.57;12.73;;;;;;;;;;5072236;28;20467;-78
2022/01/24 05:24:00;;;;;;;13.23;11.80;;;;;;;;;;5063304;28;20437;-80
2022/01/24 05:26:27;;;;;;;16.60;12.90;;;;;;;;;;5075553;28;20503;-81
2022/01/24 05:28:55;;;;;;;16.27;13.33;;;;;;;;;;5076540;28;20463;-80
2022/01/24 05:31:22;;;;;;;14.70;12.87;;;;;;;;;;5074544;28;20857;-79
2022/01/24 05:33:50;;;;;;;16.33;12.60;;;;;;;;;;5075785;28;20801;-80
2022/01/24 05:36:17;;;;;;;14.70;13.23;;;;;;;;;;5076111;28;20467;-79
2022/01/24 05:38:44;;;;;;;15.23;13.67;;;;;;;;;;5076313;28;20473;-79
2022/01/24 05:41:11;;;;;;;19.33;15.90;;;;;;;;;;5076042;28;20527;-81
2022/01/24 05:43:38;;;;;;;18.87;15.80;;;;;;;;;;5075768;28;20445;-80
2022/01/24 05:46:06;;;;;;;19.70;15.70;;;;;;;;;;5076000;28;20441;-79
2022/01/24 05:48:33;;;;;;;16.77;15.00;;;;;;;;;;5075474;28;20464;-79
2022/01/24 05:51:01;;;;;;;15.97;14.37;;;;;;;;;;5074889;28;20644;-79
2022/01/24 05:53:28;;;;;;;15.50;13.80;;;;;;;;;;5075070;28;20920;-79
2022/01/24 05:55:55;;;;;;;16.23;13.37;;;;;;;;;;5075824;28;20434;-80
2022/01/24 05:58:22;;;;;;;14.33;12.07;;;;;;;;;;5075540;28;20500;-79
2022/01/24 06:00:49;;;;;;;19.10;16.57;;;;;;;;;;5075525;28;20477;-80
2022/01/24 06:03:17;;;;;;;25.30;21.53;;;;;;;;;;5070110;28;20438;-80
2022/01/24 06:05:44;;;;;;;20.83;18.50;;;;;;;;;;5053006;28;20464;-79
2022/01/24 06:08:12;;;;;;;17.00;13.83;;;;;;;;;;5055099;28;20474;-79
2022/01/24 06:10:39;;;;;;;16.43;13.47;;;;;;;;;;5054251;28;20453;-78
2022/01/24 06:13:07;;;;;;;15.70;13.50;;;;;;;;;;5055330;28;20446;-81
2022/01/24 06:15:34;;;;;;;19.43;15.50;;;;;;;;;;5057754;28;20450;-81
2022/01/24 06:18:01;;;;;;;17.00;13.60;;;;;;;;;;5056720;28;21011;-80
2022/01/24 06:20:28;;;;;;;20.83;17.47;;;;;;;;;;5057112;28;20477;-79
2022/01/24 06:22:55;;;;;;;16.73;13.43;;;;;;;;;;5056980;28;20461;-81
2022/01/24 06:25:25;;;;;;;20.20;15.77;;;;;;;;;;5055526;28;20477;-81
2022/01/24 06:27:52;;;;;;;19.10;15.67;;;;;;;;;;5054710;28;20847;-79
2022/01/24 06:30:19;;;;;;;21.67;15.90;;;;;;;;;;5054644;28;20445;-78
2022/01/24 06:32:46;;;;;;;20.93;16.80;;;;;;;;;;5055852;28;20442;-79
2022/01/24 06:35:14;;;;;;;21.37;16.47;;;;;;;;;;5053681;28;20442;-80
2022/01/24 06:37:41;;;;;;;22.33;15.70;;;;;;;;;;5054111;28;20465;-79
2022/01/24 06:40:09;;;;;;;20.73;16.00;;;;;;;;;;5052491;28;20500;-80
2022/01/24 06:42:38;;;;;;;18.83;16.67;;;;;;;;;;5055767;28;20542;-79
2022/01/24 06:45:05;;;;;;;23.07;17.33;;;;;;;;;;5055234;28;20496;-80
2022/01/24 06:47:33;;;;;;;18.43;14.37;;;;;;;;;;5054435;28;20422;-79
2022/01/24 06:50:00;;;;;;;18.43;14.70;;;;;;;;;;5052780;28;20446;-79
2022/01/24 06:52:27;;;;;;;22.60;14.87;;;;;;;;;;5051891;28;20458;-79
2022/01/24 06:54:54;;;;;;;22.37;16.97;;;;;;;;;;5053540;28;20461;-81
2022/01/24 06:57:21;;;;;;;37.40;26.73;;;;;;;;;;5053305;28;20458;-79
2022/01/24 06:59:49;;;;;;;21.80;16.37;;;;;;;;;;5056067;28;20438;-80
2022/01/24 07:02:16;;;;;;;17.10;14.80;;;;;;;;;;5052052;28;20489;-81
2022/01/24 07:04:44;;;;;;;16.77;13.87;;;;;;;;;;5052208;28;20504;-81
2022/01/24 07:07:12;;;;;;;16.90;15.10;;;;;;;;;;5052670;28;20893;-80
2022/01/24 07:09:39;;;;;;;17.17;13.97;;;;;;;;;;5056366;28;20865;-81
2022/01/24 07:12:07;;;;;;;16.97;14.93;;;;;;;;;;5054771;28;20466;-81
2022/01/24 07:14:34;;;;;;;16.77;14.60;;;;;;;;;;5053534;28;20445;-79
2022/01/24 07:17:13;;;;;;;16.77;13.97;;;;;;;;;;5054738;28;20451;-79
2022/01/24 07:19:40;;;;;;;15.23;13.63;;;;;;;;;;5063761;28;20430;-80
2022/01/24 07:22:08;;;;;;;18.80;13.53;;;;;;;;;;5052806;28;20493;-79
2022/01/24 07:24:35;;;;;;;19.00;14.00;;;;;;;;;;5052203;28;20450;-78
2022/01/24 07:27:03;;;;;;;18.60;14.47;;;;;;;;;;5052082;28;20814;-80
2022/01/24 07:29:30;;;;;;;19.10;14.83;;;;;;;;;;5051986;28;20516;-80
2022/01/24 07:31:57;;;;;;;19.53;14.13;;;;;;;;;;5052621;28;20865;-80
2022/01/24 07:34:25;;;;;;;17.97;13.20;;;;;;;;;;5059590;28;20458;-80
2022/01/24 07:36:52;;;;;;;21.80;14.70;;;;;;;;;;5060781;28;20496;-78
2022/01/24 07:39:19;;;;;;;20.93;15.10;;;;;;;;;;5060825;28;20501;-79
2022/01/24 07:41:47;;;;;;;18.40;14.30;;;;;;;;;;5070507;28;20575;-80
2022/01/24 07:44:15;;;;;;;32.73;23.93;;;;;;;;;;5071858;28;20485;-82
2022/01/24 07:46:42;;;;;;;21.90;18.23;;;;;;;;;;5073720;28;20445;-79
2022/01/24 07:49:12;;;;;;;17.70;14.47;;;;;;;;;;5079920;28;20526;-81
2022/01/24 07:51:41;;;;;;;18.63;14.47;;;;;;;;;;5078178;28;20441;-80
2022/01/24 07:54:08;;;;;;;20.93;14.33;;;;;;;;;;5071206;28;20457;-80
2022/01/24 07:56:35;;;;;;;19.00;14.13;;;;;;;;;;5071477;28;20896;-79
2022/01/24 07:59:02;;;;;;;19.10;14.30;;;;;;;;;;5071224;28;20507;-80
2022/01/24 08:01:29;;;;;;;16.67;14.43;;;;;;;;;;5071982;28;20505;-80
2022/01/24 08:03:56;;;;;;;21.40;16.73;;;;;;;;;;5060029;28;20446;-80
2022/01/24 08:06:24;;;;;;;17.33;14.40;;;;;;;;;;5057706;28;20442;-79
2022/01/24 08:08:52;;;;;;;18.27;15.40;;;;;;;;;;5056692;28;20466;-78
2022/01/24 08:11:19;;;;;;;22.53;15.20;;;;;;;;;;5052341;28;20488;-79
2022/01/24 08:13:46;;;;;;;19.50;15.50;;;;;;;;;;5053211;28;20445;-82
2022/01/24 08:16:14;;;;;;;22.87;19.83;;;;;;;;;;5053053;28;20453;-80
2022/01/24 08:18:41;;;;;;;21.80;16.83;;;;;;;;;;5052202;28;20508;-80
2022/01/24 08:21:08;;;;;;;21.03;15.87;;;;;;;;;;5054392;28;20473;-80
2022/01/24 08:23:35;;;;;;;18.40;15.47;;;;;;;;;;5052489;28;20442;-78
2022/01/24 08:26:03;;;;;;;17.73;14.20;;;;;;;;;;5051099;28;20458;-80
2022/01/24 08:28:31;;;;;;;19.00;14.47;;;;;;;;;;5053371;28;20454;-80
2022/01/24 08:30:58;;;;;;;16.60;14.90;;;;;;;;;;5052729;28;20730;-79
2022/01/24 08:33:25;;;;;;;16.13;14.43;;;;;;;;;;5052880;28;20441;-79
2022/01/24 08:35:52;;;;;;;18.33;15.40;;;;;;;;;;5054768;28;20946;-78
2022/01/24 08:38:19;;;;;;;19.53;14.33;;;;;;;;;;5055009;28;20485;-79
2022/01/24 08:40:49;;;;;;;16.73;15.10;;;;;;;;;;5053793;28;20473;-81
2022/01/24 08:43:25;;;;;;;19.80;15.27;;;;;;;;;;5054814;28;20454;-77
2022/01/24 08:45:58;;;;;;;17.80;15.00;;;;;;;;;;5055253;28;20450;-80
2022/01/24 08:48:25;;;;;;;21.60;15.80;;;;;;;;;;5059520;28;20449;-82
2022/01/24 08:50:53;;;;;;;19.97;16.10;;;;;;;;;;5078824;28;20457;-82
2022/01/24 08:53:20;;;;;;;20.10;15.90;;;;;;;;;;5078790;28;20426;-82
2022/01/24 08:55:47;;;;;;;22.67;15.73;;;;;;;;;;5078024;28;20485;-81
2022/01/24 08:58:15;;;;;;;19.93;15.70;;;;;;;;;;5078911;28;20458;-84
2022/01/24 09:00:44;;;;;;;22.77;14.83;;;;;;;;;;5075133;28;20466;-84
2022/01/24 09:03:11;;;;;;;23.10;16.37;;;;;;;;;;5079243;28;20449;-80
2022/01/24 09:05:40;;;;;;;18.77;16.10;;;;;;;;;;5069154;28;20430;-78
2022/01/24 09:08:07;;;;;;;21.70;16.10;;;;;;;;;;5075277;28;21004;-80
2022/01/24 09:10:36;;;;;;;20.33;17.47;;;;;;;;;;5069146;28;20438;-81
2022/01/24 09:13:03;;;;;;;16.37;14.67;;;;;;;;;;5066337;28;20438;-80
2022/01/24 09:15:30;;;;;;;19.17;17.17;;;;;;;;;;5055890;28;20826;-79
2022/01/24 09:17:58;;;;;;;19.80;17.70;;;;;;;;;;5055726;28;20866;-79
2022/01/24 09:20:25;;;;;;;17.77;15.87;;;;;;;;;;5067837;28;20447;-79
2022/01/24 09:22:52;;;;;;;17.77;15.90;;;;;;;;;;5066948;28;20866;-79
2022/01/24 09:25:21;;;;;;;17.53;15.63;;;;;;;;;;5068614;28;20448;-80
2022/01/24 09:27:48;;;;;;;18.23;16.10;;;;;;;;;;5069985;28;20468;-80
2022/01/24 09:30:17;;;;;;;18.40;15.00;;;;;;;;;;5077743;28;20826;-79
2022/01/24 09:32:44;;;;;;;17.83;15.23;;;;;;;;;;5077914;28;20442;-80
2022/01/24 09:35:13;;;;;;;17.40;15.60;;;;;;;;;;5079253;28;20780;-79
2022/01/24 09:37:41;;;;;;;18.13;15.60;;;;;;;;;;5077594;28;20494;-79
2022/01/24 09:40:09;;;;;;;18.27;16.30;;;;;;;;;;5079382;28;20459;-79
2022/01/24 09:42:36;;;;;;;18.00;16.10;;;;;;;;;;5078632;28;20481;-80
2022/01/24 09:45:03;;;;;;;17.23;15.30;;;;;;;;;;5063318;28;20462;-78
2022/01/24 09:47:30;;;;;;;17.50;15.70;;;;;;;;;;5038771;28;20443;-79
2022/01/24 09:49:57;;;;;;;15.97;14.37;;;;;;;;;;5038629;28;20466;-79
2022/01/24 09:52:26;;;;;;;19.90;16.10;;;;;;;;;;5054985;28;20938;-79
2022/01/24 09:54:53;;;;;;;15.77;14.13;;;;;;;;;;5073830;28;20441;-79
2022/01/24 09:57:20;;;;;;;15.70;14.10;;;;;;;;;;5080441;28;20716;-80
2022/01/24 09:59:47;;;;;;;19.43;15.33;;;;;;;;;;5086893;28;20448;-78
2022/01/24 10:02:14;;;;;;;17.83;16.03;;;;;;;;;;5087754;28;20465;-79
2022/01/24 10:04:41;;;;;;;18.27;16.37;;;;;;;;;;5066021;28;20851;-79
2022/01/24 10:07:11;;;;;;;17.87;16.17;;;;;;;;;;5058347;28;20449;-79
2022/01/24 10:09:41;;;;;;;16.90;14.73;;;;;;;;;;5050499;28;20474;-80
2022/01/24 10:17:49;;;;;;;15.80;14.27;;;;;;;;;;5053797;28;20476;-79
2022/01/24 10:20:16;;;;;;;15.63;13.97;;;;;;;;;;5068237;28;20429;-79
2022/01/24 10:22:44;;;;;;;15.73;13.50;;;;;;;;;;5067106;28;20473;-79
2022/01/24 10:25:12;;;;;;;15.03;13.63;;;;;;;;;;5077976;28;20499;-80
2022/01/24 10:27:42;;;;;;;14.70;13.07;;;;;;;;;;5075614;28;20546;-80
2022/01/24 10:30:12;;;;;;;13.40;12.17;;;;;;;;;;5067729;28;20437;-81
2022/01/24 10:32:40;;;;;;;13.23;11.83;;;;;;;;;;5076095;28;20437;-79
2022/01/24 10:35:24;;;;;;;23.40;12.97;;;;;;;;;;5075722;28;20437;-79
2022/01/24 10:37:54;;;;;;;13.97;12.67;;;;;;;;;;5075201;28;20865;-79
2022/01/24 10:40:46;;;;;;;13.30;11.90;;;;;;;;;;5076173;28;20441;-80
2022/01/24 10:43:16;;;;;;;13.40;12.00;;;;;;;;;;5042288;28;20825;-80
2022/01/24 10:45:44;;;;;;;12.10;11.10;;;;;;;;;;5063452;28;20506;-80
2022/01/24 10:48:12;;;;;;;11.43;10.33;;;;;;;;;;5068815;28;20544;-79
2022/01/24 10:50:39;;;;;;;12.13;11.03;;;;;;;;;;5075160;28;20449;-79
2022/01/24 10:53:10;;;;;;;11.80;10.70;;;;;;;;;;5073892;28;20441;-79
2022/01/24 10:55:40;;;;;;;12.20;11.10;;;;;;;;;;5073583;28;20881;-79
2022/01/24 10:58:08;;;;;;;10.87;9.97;;;;;;;;;;5073556;28;20458;-79
2022/01/24 11:00:36;;;;;;;11.20;10.20;;;;;;;;;;5073611;28;20445;-77
2022/01/24 11:03:04;;;;;;;11.73;10.57;;;;;;;;;;5069227;28;21066;-78
2022/01/24 11:05:34;;;;;;;10.97;9.97;;;;;;;;;;5059773;28;20445;-78
2022/01/24 11:08:02;;;;;;;12.30;11.10;;;;;;;;;;5051824;28;21037;-78
2022/01/24 11:10:30;;;;;;;11.07;10.07;;;;;;;;;;5064811;28;20960;-78
2022/01/24 11:12:59;;;;;;;12.47;10.80;;;;;;;;;;5042601;28;20451;-78
2022/01/24 11:15:27;;;;;;;12.20;11.00;;;;;;;;;;5061496;28;20462;-79
2022/01/24 11:17:54;;;;;;;11.03;10.03;;;;;;;;;;5064702;28;20878;-78
2022/01/24 11:20:28;;;;;;;10.27;9.40;;;;;;;;;;5073072;28;20451;-78
2022/01/24 11:23:02;;;;;;;11.27;10.23;;;;;;;;;;5061818;28;20484;-79
2022/01/24 11:25:30;;;;;;;10.73;9.63;;;;;;;;;;5061288;28;20465;-79
2022/01/24 11:27:58;;;;;;;9.90;9.10;;;;;;;;;;5053101;28;20482;-78
2022/01/24 11:30:29;;;;;;;10.30;9.43;;;;;;;;;;5035500;28;20439;-78
2022/01/24 11:32:57;;;;;;;9.70;8.90;;;;;;;;;;5064636;28;20523;-79
2022/01/24 11:35:35;;;;;;;9.87;8.97;;;;;;;;;;5056082;28;20784;-78
2022/01/24 11:38:02;;;;;;;9.80;8.90;;;;;;;;;;5040545;28;20474;-77
2022/01/24 11:40:44;;;;;;;10.73;9.30;;;;;;;;;;5060441;28;20449;-78
2022/01/24 11:43:26;;;;;;;10.00;9.00;;;;;;;;;;5032430;28;20469;-78
2022/01/24 11:46:02;;;;;;;11.83;9.63;;;;;;;;;;5038136;28;20527;-78
2022/01/24 11:48:29;;;;;;;9.20;8.30;;;;;;;;;;5072244;28;20999;-78
2022/01/24 11:50:57;;;;;;;10.63;9.73;;;;;;;;;;5072419;28;21135;-78
2022/01/24 11:53:26;;;;;;;9.40;8.63;;;;;;;;;;5072084;28;20444;-78
2022/01/24 11:55:55;;;;;;;9.43;8.63;;;;;;;;;;5072163;28;20446;-79
2022/01/24 11:58:29;;;;;;;12.53;9.13;;;;;;;;;;5072226;28;20485;-79
2022/01/24 12:01:01;;;;;;;9.53;8.63;;;;;;;;;;5073278;28;20441;-79
2022/01/24 12:03:28;;;;;;;8.93;8.13;;;;;;;;;;5072314;28;21051;-79
2022/01/24 12:05:57;;;;;;;8.70;7.97;;;;;;;;;;5072549;28;20515;-78
2022/01/24 12:08:31;;;;;;;9.43;8.13;;;;;;;;;;5072804;28;20469;-79
2022/01/24 12:11:12;;;;;;;9.10;7.07;;;;;;;;;;5073545;28;20425;-79
2022/01/24 12:13:43;;;;;;;8.23;7.43;;;;;;;;;;5071624;28;20547;-78
2022/01/24 12:16:11;;;;;;;8.83;8.00;;;;;;;;;;5051305;28;20462;-79
2022/01/24 12:18:46;;;;;;;8.37;7.67;;;;;;;;;;5035198;28;20515;-79
2022/01/24 12:21:14;;;;;;;8.77;8.00;;;;;;;;;;5032535;28;20451;-78
2022/01/24 12:23:42;;;;;;;7.33;6.73;;;;;;;;;;5031660;28;20483;-78
2022/01/24 12:26:10;;;;;;;7.43;6.57;;;;;;;;;;5034360;28;20466;-79
2022/01/24 12:28:50;;;;;;;9.33;6.60;;;;;;;;;;5033227;28;20839;-78
2022/01/24 12:31:20;;;;;;;7.37;6.60;;;;;;;;;;5033434;28;20852;-78
2022/01/24 12:33:52;;;;;;;7.27;6.60;;;;;;;;;;5031655;28;20929;-77
2022/01/24 12:36:46;;;;;;;7.23;6.63;;;;;;;;;;5033181;28;20478;-78
2022/01/24 12:39:15;;;;;;;6.93;6.33;;;;;;;;;;5035210;28;20844;-78
2022/01/24 12:41:46;;;;;;;6.87;6.27;;;;;;;;;;5044328;28;20527;-79
2022/01/24 12:46:57;;;;;;;7.17;6.57;;;;;;;;;;5053043;28;20463;-79
2022/01/24 12:49:25;;;;;;;6.67;6.07;;;;;;;;;;5053548;28;20997;-79
2022/01/24 12:51:52;;;;;;;7.20;6.50;;;;;;;;;;5053218;28;20499;-80
2022/01/24 12:54:19;;;;;;;6.60;6.10;;;;;;;;;;5054219;28;20433;-79
2022/01/24 12:56:46;;;;;;;5.97;5.47;;;;;;;;;;5053192;28;20451;-79
2022/01/24 12:59:13;;;;;;;5.70;5.20;;;;;;;;;;5053482;28;20493;-78
2022/01/24 13:01:42;;;;;;;5.90;5.50;;;;;;;;;;5053832;28;20451;-79
2022/01/24 13:04:11;;;;;;;5.83;5.33;;;;;;;;;;5053418;28;20477;-79
2022/01/24 13:06:39;;;;;;;6.47;5.37;;;;;;;;;;5053640;28;20438;-79
2022/01/24 13:09:13;;;;;;;6.60;5.97;;;;;;;;;;5053484;28;20447;-80
2022/01/24 13:11:45;;;;;;;6.33;5.70;;;;;;;;;;5052993;28;20536;-78
2022/01/24 13:14:15;;;;;;;6.30;5.80;;;;;;;;;;5051883;28;20449;-80
2022/01/24 13:22:28;;;;;;;6.30;5.77;;;;;;;;;;5052238;28;20494;-78
2022/01/24 13:25:09;;;;;;;5.33;4.90;;;;;;;;;;5052372;28;20459;-79
2022/01/24 13:27:37;;;;;;;5.33;4.83;;;;;;;;;;5052899;28;20458;-78
2022/01/24 13:30:05;;;;;;;5.63;5.13;;;;;;;;;;5054800;28;20930;-78
2022/01/24 13:32:48;;;;;;;5.20;4.80;;;;;;;;;;5055434;28;20439;-78
2022/01/24 13:35:19;;;;;;;6.47;5.20;;;;;;;;;;5055460;28;20438;-78
2022/01/24 13:37:46;;;;;;;6.07;5.13;;;;;;;;;;5055174;28;20474;-78
2022/01/24 13:40:13;;;;;;;5.57;5.00;;;;;;;;;;5056164;28;20464;-78
2022/01/24 13:42:40;;;;;;;7.30;5.13;;;;;;;;;;5055651;28;20485;-79
2022/01/24 13:45:08;;;;;;;5.40;4.90;;;;;;;;;;5055385;28;20442;-79
2022/01/24 13:47:35;;;;;;;6.30;5.33;;;;;;;;;;5055780;28;20439;-79
2022/01/24 13:50:08;;;;;;;5.70;5.20;;;;;;;;;;5054975;28;20427;-78
2022/01/24 13:52:35;;;;;;;7.00;5.40;;;;;;;;;;5054844;28;20563;-79
2022/01/24 13:55:15;;;;;;;4.73;4.33;;;;;;;;;;5055481;28;20442;-78
2022/01/24 13:57:45;;;;;;;6.00;4.77;;;;;;;;;;5056147;28;20993;-78
2022/01/24 14:00:15;;;;;;;5.97;5.37;;;;;;;;;;5056646;28;20537;-80
2022/01/24 14:02:42;;;;;;;5.70;4.73;;;;;;;;;;5055272;28;20584;-78
2022/01/24 14:05:11;;;;;;;5.60;4.73;;;;;;;;;;5054775;28;20446;-78
2022/01/24 14:07:41;;;;;;;5.57;4.50;;;;;;;;;;5054335;28;20519;-78
2022/01/24 14:10:10;;;;;;;5.70;4.80;;;;;;;;;;5054720;28;20466;-79
2022/01/24 14:12:48;;;;;;;7.27;5.00;;;;;;;;;;5054117;28;21004;-78
2022/01/24 14:15:20;;;;;;;4.93;4.50;;;;;;;;;;5054661;28;20441;-79
2022/01/24 14:18:20;;;;;;;5.30;4.90;;;;;;;;;;5054559;28;20491;-78
2022/01/24 14:20:51;;;;;;;4.77;4.37;;;;;;;;;;5054146;28;20446;-78
2022/01/24 14:23:22;;;;;;;8.23;5.10;;;;;;;;;;5054378;28;20473;-79
2022/01/24 14:25:49;;;;;;;5.20;4.80;;;;;;;;;;5054415;28;20454;-78
2022/01/24 14:28:17;;;;;;;6.90;4.87;;;;;;;;;;5053952;28;20465;-78
2022/01/24 14:30:45;;;;;;;7.40;4.43;;;;;;;;;;5054002;28;20445;-78
2022/01/24 14:33:14;;;;;;;4.90;4.47;;;;;;;;;;5053707;28;20682;-79
2022/01/24 14:35:49;;;;;;;5.80;4.50;;;;;;;;;;5053630;28;20450;-78
2022/01/24 14:38:18;;;;;;;5.60;3.90;;;;;;;;;;5053407;28;20973;-78
2022/01/24 14:40:48;;;;;;;4.53;4.13;;;;;;;;;;5053477;28;20438;-78
2022/01/24 14:46:05;;;;;;;4.97;4.47;;;;;;;;;;5053229;28;20797;-78
2022/01/24 14:48:32;;;;;;;5.30;4.77;;;;;;;;;;5053916;28;20465;-79
2022/01/24 14:50:59;;;;;;;7.07;5.20;;;;;;;;;;5055605;28;20449;-78
2022/01/24 14:53:29;;;;;;;5.40;4.90;;;;;;;;;;5055101;28;20442;-78
2022/01/24 14:55:57;;;;;;;6.43;4.90;;;;;;;;;;5055671;28;20438;-78
2022/01/24 14:58:24;;;;;;;6.00;5.40;;;;;;;;;;5054864;28;20533;-79
2022/01/24 15:00:51;;;;;;;6.03;5.00;;;;;;;;;;5055052;28;20539;-79
2022/01/24 15:03:18;;;;;;;5.40;4.90;;;;;;;;;;5055435;28;21012;-78
2022/01/24 15:05:45;;;;;;;5.50;4.70;;;;;;;;;;5056278;28;20462;-79
2022/01/24 15:08:13;;;;;;;5.67;5.17;;;;;;;;;;5055106;28;20462;-78
2022/01/24 15:10:41;;;;;;;6.37;5.77;;;;;;;;;;5054343;28;20450;-77
2022/01/24 15:13:10;;;;;;;5.40;4.90;;;;;;;;;;5053363;28;20441;-78
2022/01/24 15:15:42;;;;;;;6.23;5.27;;;;;;;;;;5061877;28;20490;-78
2022/01/24 15:24:12;;;;;;;6.90;4.90;;;;;;;;;;5076148;28;20468;-78
2022/01/24 15:26:41;;;;;;;5.10;4.70;;;;;;;;;;5075707;28;20457;-78
2022/01/24 15:29:08;;;;;;;4.70;4.30;;;;;;;;;;5076271;28;20458;-78
2022/01/24 15:31:35;;;;;;;5.30;4.80;;;;;;;;;;5076071;28;20453;-77
2022/01/24 15:34:02;;;;;;;5.60;5.10;;;;;;;;;;5075607;28;20434;-78
2022/01/24 15:36:29;;;;;;;5.13;4.63;;;;;;;;;;5075260;28;20442;-78
2022/01/24 15:39:01;;;;;;;5.07;4.67;;;;;;;;;;5075428;28;20478;-77
2022/01/24 15:41:28;;;;;;;4.83;4.43;;;;;;;;;;5065395;28;20671;-78
2022/01/24 15:44:04;;;;;;;4.23;3.83;;;;;;;;;;5052115;28;20907;-78
2022/01/24 15:46:49;;;;;;;5.70;5.30;;;;;;;;;;5053427;28;20553;-78
2022/01/24 15:49:16;;;;;;;5.80;5.30;;;;;;;;;;5053717;28;20995;-77
2022/01/24 15:51:43;;;;;;;5.87;5.37;;;;;;;;;;5053057;28;20449;-78
2022/01/24 15:54:12;;;;;;;5.83;5.33;;;;;;;;;;5053409;28;20508;-78